createdAt,value
2018-11-12T00:01:31.830Z,12.43
2018-11-12T00:06:35.158Z,12.33
2018-11-12T00:11:39.248Z,12.33
2018-11-12T01:48:48.219Z,11.68
2018-11-12T01:53:51.542Z,11.64
2018-11-12T01:58:54.865Z,11.34
2018-11-12T03:35:54.910Z,10.70
2018-11-12T03:40:58.227Z,10.65
2018-11-12T04:49:19.222Z,10.27
2018-11-12T04:54:22.558Z,10.35
2018-11-12T04:59:26.074Z,10.33
2018-11-12T05:33:15.084Z,10.37
2018-11-12T05:38:18.496Z,10.41
2018-11-12T05:43:22.518Z,10.36
2018-11-12T05:48:25.850Z,10.33
2018-11-12T05:53:29.173Z,10.26
2018-11-12T05:58:32.497Z,10.32
2018-11-12T06:03:36.590Z,10.32
2018-11-12T06:08:40.907Z,10.19
2018-11-12T06:13:45.024Z,10.20
2018-11-12T06:18:48.353Z,10.17
2018-11-12T06:23:51.694Z,10.23
2018-11-12T06:28:55.058Z,10.27
2018-11-12T06:33:58.371Z,10.33
2018-11-12T06:39:02.498Z,10.45
2018-11-12T06:44:05.819Z,10.51
2018-11-12T06:49:09.155Z,10.55
2018-11-12T06:54:13.243Z,10.55
2018-11-12T06:59:17.327Z,10.60
2018-11-12T07:04:20.663Z,10.62
2018-11-12T07:09:23.982Z,10.72
2018-11-12T07:14:28.075Z,10.81
2018-11-12T07:19:32.166Z,11.10
2018-11-12T07:24:35.490Z,11.19
2018-11-12T07:29:38.815Z,11.32
2018-11-12T08:03:30.123Z,12.39
2018-11-12T08:08:34.142Z,12.56
2018-11-12T08:13:37.476Z,12.75
2018-11-12T09:04:43.015Z,14.38
2018-11-12T09:09:46.391Z,14.43
2018-11-12T09:14:50.450Z,14.60
2018-11-12T10:05:56.041Z,15.80
2018-11-12T10:11:01.345Z,15.98
2018-11-12T11:02:03.241Z,16.96
2018-11-12T11:07:06.577Z,16.98
2018-11-12T11:12:09.910Z,17.13
2018-11-12T12:03:16.212Z,18.95
2018-11-12T12:08:19.547Z,19.36
2018-11-12T12:13:22.937Z,19.67
2018-11-12T13:04:27.443Z,22.30
2018-11-12T13:09:30.779Z,22.78
2018-11-12T13:14:34.202Z,23.30
2018-11-12T14:05:39.992Z,21.66
2018-11-12T14:10:43.327Z,21.09
2018-11-12T15:01:49.522Z,21.60
2018-11-12T15:06:52.736Z,20.84
2018-11-12T15:11:56.071Z,20.78
2018-11-12T15:45:56.628Z,19.49
2018-11-12T15:51:00.016Z,19.28
2018-11-12T15:56:03.311Z,19.16
2018-11-12T16:35:37.630Z,17.90
2018-11-12T16:40:40.966Z,17.65
2018-11-12T16:45:45.311Z,17.40
2018-11-12T16:50:48.642Z,17.44
2018-11-12T16:55:51.976Z,17.45
2018-11-12T17:00:55.310Z,17.42
2018-11-12T17:05:58.647Z,17.50
2018-11-12T17:11:01.988Z,17.53
2018-11-12T17:16:06.084Z,17.52
2018-11-12T17:21:09.418Z,17.49
2018-11-12T17:26:13.520Z,17.40
2018-11-12T17:31:16.854Z,17.30
2018-11-12T17:36:20.197Z,17.26
2018-11-12T17:41:23.564Z,17.23
2018-11-12T17:46:26.908Z,17.11
2018-11-12T17:51:31.008Z,16.83
2018-11-12T17:56:34.339Z,16.63
2018-11-12T18:01:38.604Z,16.58
2018-11-12T18:06:41.799Z,16.64
2018-11-12T18:11:45.138Z,16.57
2018-11-12T18:16:48.490Z,16.60
2018-11-12T18:21:51.842Z,16.63
2018-11-12T18:26:55.183Z,16.57
2018-11-12T18:31:58.709Z,16.52
2018-11-12T18:37:01.851Z,16.48
2018-11-12T18:42:05.199Z,16.41
2018-11-12T18:47:08.531Z,16.34
2018-11-12T18:52:11.919Z,16.27
2018-11-12T18:57:15.217Z,16.12
2018-11-12T19:02:19.323Z,16.01
2018-11-12T19:07:22.667Z,15.86
2018-11-12T19:12:26.770Z,15.77
2018-11-12T19:17:30.105Z,15.75
2018-11-12T19:22:34.202Z,15.73
2018-11-12T19:27:38.317Z,15.68
2018-11-12T19:32:41.674Z,15.62
2018-11-12T19:37:45.777Z,15.60
2018-11-12T19:42:49.107Z,15.52
2018-11-12T19:47:52.443Z,15.51
2018-11-12T19:52:56.550Z,15.52
2018-11-12T19:57:59.883Z,15.40
2018-11-12T20:03:03.983Z,15.35
2018-11-12T20:08:07.332Z,15.24
2018-11-12T20:13:10.677Z,15.06
2018-11-12T20:18:14.006Z,14.95
2018-11-12T20:23:17.344Z,14.88
2018-11-12T20:28:20.671Z,14.91
2018-11-12T20:33:24.779Z,14.86
2018-11-12T20:38:28.122Z,14.83
2018-11-12T20:43:32.219Z,14.75
2018-11-12T20:48:35.554Z,14.73
2018-11-12T20:53:38.888Z,14.69
2018-11-12T20:58:42.219Z,14.59
2018-11-12T21:03:45.561Z,14.47
2018-11-12T21:08:48.902Z,14.39
2018-11-12T21:13:52.223Z,14.35
2018-11-12T21:18:56.314Z,14.20
2018-11-12T21:23:59.635Z,14.12
2018-11-12T21:29:03.075Z,14.04
2018-11-12T21:34:07.164Z,13.97
2018-11-12T21:39:10.478Z,13.92
2018-11-12T21:44:13.800Z,13.96
2018-11-12T21:49:17.118Z,13.99
2018-11-12T21:54:20.438Z,13.98
2018-11-12T21:59:23.865Z,13.87
2018-11-12T22:04:27.105Z,13.77
2018-11-12T22:09:30.423Z,13.73
2018-11-12T22:14:33.751Z,13.62
2018-11-12T22:19:37.226Z,13.59
2018-11-12T22:24:40.415Z,13.62
2018-11-12T22:29:43.753Z,13.68
2018-11-12T22:34:47.838Z,13.79
2018-11-12T22:39:51.171Z,13.81
2018-11-12T22:44:54.760Z,13.77
2018-11-12T22:49:58.374Z,13.69
2018-11-12T22:55:01.995Z,13.65
2018-11-12T23:00:05.372Z,13.60
2018-11-12T23:05:08.824Z,13.60
2018-11-12T23:10:12.339Z,13.65
2018-11-12T23:15:15.853Z,13.65
2018-11-12T23:20:19.409Z,13.61
2018-11-12T23:25:22.742Z,13.65
2018-11-12T23:30:26.833Z,13.63
2018-11-12T23:35:30.161Z,13.64
2018-11-12T23:40:33.495Z,13.66
2018-11-12T23:45:37.580Z,13.62
2018-11-12T23:50:40.914Z,13.57
2018-11-12T23:55:44.244Z,13.51
